Roza A — TCRB7 — position and weather

sailwx.info

Track history (hours):
 
Tides and Currents Weather Stations Pressure Air Temp Water Temp Dewpoint Dewpoint Depression Visibility Wind Speed Wind Dir Waves Ship Positions

Roza A

Last reported at 2014-Sep-16 17:33 UTC. Time now 2014-Sep-18 11:46 UTC.
Position N 37°36' E 024°02'.

Length 169 m; draft 8.1 m.

Type: Ship (hazmat cat A). MMSI: 271001057.

Date/timePositionNaut miles runAvg speedWind from/ knotsBaromVisibWave heightAir tempDewpointWater temp
2014-Sep-16 17:33N 37°36' E 024°02'1413.7
2014-Sep-16 16:33N 37°38' E 023°45'1413.9
2014-Sep-16 15:34N 37°50' E 023°37'7 6.8
2014-Sep-16 14:31N 37°57' E 023°36'0 0.0
2014-Sep-16 13:31N 37°57' E 023°36'0 0.0
2014-Sep-16 12:31N 37°57' E 023°36'0 0.0
2014-Sep-16 11:31N 37°57' E 023°36'0 0.0
2014-Sep-16 10:31N 37°57' E 023°36'0 0.0
2014-Sep-16 08:19N 37°57' E 023°36'0 0.0
2014-Sep-16 07:31N 37°57' E 023°36'0 0.0
2014-Sep-16 05:22N 37°57' E 023°36'0 0.1
2014-Sep-16 04:33N 37°57' E 023°36'4 4.0
2014-Sep-16 03:34N 37°53' E 023°35'4 3.5
2014-Sep-16 02:33N 37°51' E 023°39'1010.2
2014-Sep-16 01:33N 37°42' E 023°44'41611.5
2014-Sep-14 13:22N 36°32' E 015°10'1214.6
2014-Sep-14 12:32N 36°34' E 014°55'1414.8
2014-Sep-14 11:34N 36°38' E 014°38'1514.7
2014-Sep-14 10:34N 36°43' E 014°20'1514.6
2014-Sep-14 09:34N 36°48' E 014°03'1514.7
2014-Sep-14 08:34N 36°55' E 013°47'1414.3
2014-Sep-14 07:34N 37°00' E 013°30'24314.3
2014-Sep-13 14:33N 38°39' E 008°50'1414.3
2014-Sep-13 13:33N 38°44' E 008°32'1714.1
2014-Sep-13 12:22N 38°49' E 008°12'24513.6
2014-Sep-12 18:23N 40°38' E 003°26'1214.1
2014-Sep-12 17:32N 40°45' E 003°13'1414.2
2014-Sep-12 16:32N 40°54' E 002°59'1313.9
2014-Sep-12 15:34N 41°02' E 002°45'1413.8
2014-Sep-12 14:32N 41°10' E 002°29'1513.3
2014-Sep-12 13:23N 41°17' E 002°11'5 2.3
2014-Sep-12 11:24N 41°21' E 002°10'0 0.0
2014-Sep-12 10:30N 41°21' E 002°10'0 0.0
2014-Sep-12 09:18N 41°21' E 002°10'0 0.0
2014-Sep-12 08:30N 41°21' E 002°10'0 0.0
2014-Sep-12 07:30N 41°21' E 002°10'0 0.0
2014-Sep-12 04:30N 41°21' E 002°10'0 0.0
2014-Sep-12 02:30N 41°21' E 002°10'0 0.0
2014-Sep-11 22:30N 41°21' E 002°10'0 0.0
2014-Sep-11 21:06N 41°21' E 002°10'0 0.0
2014-Sep-11 19:30N 41°21' E 002°10'1 0.6
2014-Sep-11 18:32N 41°21' E 002°10'1010.2
2014-Sep-11 17:30N 41°11' E 002°06'1313.1
2014-Sep-11 16:31N 41°01' E 001°55'1714.7
2014-Sep-11 15:23N 40°48' E 001°41'1214.8
2014-Sep-11 14:33N 40°39' E 001°30'1414.1
2014-Sep-11 13:33N 40°31' E 001°15'1514.5
2014-Sep-11 12:33N 40°23' E 000°59'1514.7
2014-Sep-11 11:33N 40°15' E 000°43'1514.7
2014-Sep-11 10:33N 40°07' E 000°27'1414.4
2014-Sep-11 09:33N 39°59' E 000°11'7 5.8
2014-Sep-11 08:17N 39°58' E 000°02'0 0.0
2014-Sep-11 07:29N 39°58' E 000°02'0 0.0
2014-Sep-10 21:30N 39°58' E 000°02'6 5.2
2014-Sep-10 20:27N 39°57' E 000°09'1 1.2
2014-Sep-10 19:32N 39°57' E 000°10'1 0.3
2014-Sep-10 17:24N 39°56' E 000°10'21 7.4
2014-Sep-10 14:31N 39°37' W 000°03'1111.1
2014-Sep-10 13:33N 39°29' W 000°12'6 4.6
2014-Sep-10 12:19N 39°27' W 000°19'0 0.0
2014-Sep-10 11:31N 39°27' W 000°19'0 0.0
2014-Sep-10 10:28N 39°27' W 000°19'0 0.0
2014-Sep-10 09:31N 39°27' W 000°19'0 0.0
2014-Sep-10 08:28N 39°27' W 000°19'0 0.0
2014-Sep-10 07:19N 39°27' W 000°19'0 0.0
2014-Sep-10 06:31N 39°27' W 000°19'0 0.0
2014-Sep-10 05:31N 39°27' W 000°19'0 0.0
2014-Sep-10 04:28N 39°27' W 000°19'0 0.0
2014-Sep-10 03:31N 39°27' W 000°19'0 0.0
2014-Sep-10 02:31N 39°27' W 000°19'0 0.0
2014-Sep-10 01:31N 39°27' W 000°19'0 0.0
2014-Sep-10 00:31N 39°27' W 000°19'0 0.0
2014-Sep-09 23:31N 39°27' W 000°19'0 0.0
2014-Sep-09 22:31N 39°27' W 000°19'0 0.0
2014-Sep-09 21:31N 39°27' W 000°19'0 0.0
2014-Sep-09 20:31N 39°27' W 000°19'0 0.0
2014-Sep-09 19:32N 39°27' W 000°19'3 3.0
2014-Sep-09 18:33N 39°26' W 000°15'9 8.8
2014-Sep-09 17:34N 39°32' W 000°07'3414.6
2014-Sep-09 15:14N 39°54' E 000°26'913.6
2014-Sep-09 14:33N 40°02' E 000°32'1414.2
2014-Sep-09 13:33N 40°11' E 000°47'1514.7
2014-Sep-09 12:33N 40°19' E 001°03'1514.8
2014-Sep-09 11:33N 40°27' E 001°20'1515.5
2014-Sep-09 10:34N 40°36' E 001°36'1414.2
2014-Sep-09 09:33N 40°45' E 001°51'1515.0
2014-Sep-09 08:33N 40°53' E 002°07'1515.4
2014-Sep-09 07:33N 41°02' E 002°24'1514.8
2014-Sep-09 06:33N 41°11' E 002°40'1715.6
2014-Sep-09 05:27N 41°20' E 002°59'1515.5
2014-Sep-09 04:30N 41°32' E 003°11'8115.3
2014-Sep-08 23:12N 42°36' E 004°18'2515.0
2014-Sep-08 21:32N 42°55' E 004°40'1514.8
2014-Sep-08 20:32N 43°06' E 004°54'1212.6
2014-Sep-08 19:34N 43°17' E 004°59'9 8.7
2014-Sep-08 18:34N 43°24' E 004°52'1 0.7
2014-Sep-08 17:33N 43°24' E 004°51'0 0.0
2014-Sep-08 16:33N 43°24' E 004°51'0 0.0
2014-Sep-08 15:33N 43°24' E 004°51'0 0.0
2014-Sep-08 14:30N 43°24' E 004°51'0 0.0
2014-Sep-08 13:33N 43°24' E 004°51'0 0.0
2014-Sep-08 12:33N 43°24' E 004°51'0 0.0
2014-Sep-08 11:33N 43°24' E 004°51'0 0.0
2014-Sep-08 10:33N 43°24' E 004°51'0 0.0
2014-Sep-08 09:30N 43°24' E 004°51'0 0.0
2014-Sep-08 08:33N 43°24' E 004°51'0 0.0
2014-Sep-08 07:33N 43°24' E 004°51'0 0.0
2014-Sep-08 06:33N 43°24' E 004°51'0 0.0
2014-Sep-08 05:33N 43°24' E 004°51'0 0.0
2014-Sep-08 04:33N 43°24' E 004°51'0 0.0
2014-Sep-08 03:33N 43°24' E 004°51'0 0.0
2014-Sep-08 02:33N 43°24' E 004°51'0 0.0
2014-Sep-08 01:33N 43°24' E 004°51'0 0.0
2014-Sep-08 00:33N 43°24' E 004°51'0 0.0
2014-Sep-07 23:33N 43°24' E 004°51'0 0.0
2014-Sep-07 22:33N 43°24' E 004°51'0 0.0
2014-Sep-07 21:33N 43°24' E 004°51'0 0.0
2014-Sep-07 20:33N 43°24' E 004°51'0 0.0
2014-Sep-07 19:33N 43°24' E 004°51'0 0.0
2014-Sep-07 18:33N 43°24' E 004°51'0 0.0
2014-Sep-07 17:33N 43°24' E 004°51'0 0.0
2014-Sep-07 16:33N 43°24' E 004°51'0 0.0
2014-Sep-07 15:33N 43°24' E 004°51'0 0.0
2014-Sep-07 14:33N 43°24' E 004°51'0 0.0
2014-Sep-07 13:33N 43°24' E 004°51'1 0.9
2014-Sep-07 12:34N 43°24' E 004°52'3 3.3
2014-Sep-07 11:32N 43°24' E 004°57'0 0.0
2014-Sep-07 10:29N 43°24' E 004°57'0 0.0
2014-Sep-07 09:32N 43°24' E 004°57'0 0.0
2014-Sep-07 08:32N 43°24' E 004°57'0 0.0
2014-Sep-07 07:32N 43°24' E 004°57'0 0.0
2014-Sep-07 06:32N 43°24' E 004°57'0 0.0
2014-Sep-07 05:32N 43°24' E 004°57'0 0.1
2014-Sep-07 04:33N 43°24' E 004°57'5 4.9
2014-Sep-07 03:33N 43°19' E 004°59'1111.1
2014-Sep-07 02:33N 43°09' E 005°05'1111.2
2014-Sep-07 01:33N 42°59' E 005°12'1611.2
2014-Sep-07 00:07N 42°45' E 005°23'610.9
2014-Sep-06 23:32N 42°40' E 005°28'3110.4
2014-Sep-06 20:31N 42°13' E 005°49'1110.6
2014-Sep-06 19:30N 42°04' E 005°57'1210.9
2014-Sep-06 18:25N 41°53' E 006°06'  
Track history (hours):
 
Tides and Currents Weather Stations Pressure Air Temp Water Temp Dewpoint Dewpoint Depression Visibility Wind Speed Wind Dir Waves Ship Positions

Roza A

Last reported at 2014-Sep-16 17:33 UTC. Time now 2014-Sep-18 11:46 UTC.
Position N 37°36' E 024°02'.

Length 169 m; draft 8.1 m.

Type: Ship (hazmat cat A). MMSI: 271001057.

Date/timePositionNaut miles runAvg speedWind from/ knotsBaromVisibWave heightAir tempDewpointWater temp
2014-Sep-16 17:33N 37°36' E 024°02'1413.7
2014-Sep-16 16:33N 37°38' E 023°45'1413.9
2014-Sep-16 15:34N 37°50' E 023°37'7 6.8
2014-Sep-16 14:31N 37°57' E 023°36'0 0.0
2014-Sep-16 13:31N 37°57' E 023°36'0 0.0
2014-Sep-16 12:31N 37°57' E 023°36'0 0.0
2014-Sep-16 11:31N 37°57' E 023°36'0 0.0
2014-Sep-16 10:31N 37°57' E 023°36'0 0.0
2014-Sep-16 08:19N 37°57' E 023°36'0 0.0
2014-Sep-16 07:31N 37°57' E 023°36'0 0.0
2014-Sep-16 05:22N 37°57' E 023°36'0 0.1
2014-Sep-16 04:33N 37°57' E 023°36'4 4.0
2014-Sep-16 03:34N 37°53' E 023°35'4 3.5
2014-Sep-16 02:33N 37°51' E 023°39'1010.2
2014-Sep-16 01:33N 37°42' E 023°44'41611.5
2014-Sep-14 13:22N 36°32' E 015°10'1214.6
2014-Sep-14 12:32N 36°34' E 014°55'1414.8
2014-Sep-14 11:34N 36°38' E 014°38'1514.7
2014-Sep-14 10:34N 36°43' E 014°20'1514.6
2014-Sep-14 09:34N 36°48' E 014°03'1514.7
2014-Sep-14 08:34N 36°55' E 013°47'1414.3
2014-Sep-14 07:34N 37°00' E 013°30'24314.3
2014-Sep-13 14:33N 38°39' E 008°50'1414.3
2014-Sep-13 13:33N 38°44' E 008°32'1714.1
2014-Sep-13 12:22N 38°49' E 008°12'24513.6
2014-Sep-12 18:23N 40°38' E 003°26'1214.1
2014-Sep-12 17:32N 40°45' E 003°13'1414.2
2014-Sep-12 16:32N 40°54' E 002°59'1313.9
2014-Sep-12 15:34N 41°02' E 002°45'1413.8
2014-Sep-12 14:32N 41°10' E 002°29'1513.3
2014-Sep-12 13:23N 41°17' E 002°11'5 2.3
2014-Sep-12 11:24N 41°21' E 002°10'0 0.0
2014-Sep-12 10:30N 41°21' E 002°10'0 0.0
2014-Sep-12 09:18N 41°21' E 002°10'0 0.0
2014-Sep-12 08:30N 41°21' E 002°10'0 0.0
2014-Sep-12 07:30N 41°21' E 002°10'0 0.0
2014-Sep-12 04:30N 41°21' E 002°10'0 0.0
2014-Sep-12 02:30N 41°21' E 002°10'0 0.0
2014-Sep-11 22:30N 41°21' E 002°10'0 0.0
2014-Sep-11 21:06N 41°21' E 002°10'0 0.0
2014-Sep-11 19:30N 41°21' E 002°10'1 0.6
2014-Sep-11 18:32N 41°21' E 002°10'1010.2
2014-Sep-11 17:30N 41°11' E 002°06'1313.1
2014-Sep-11 16:31N 41°01' E 001°55'1714.7
2014-Sep-11 15:23N 40°48' E 001°41'1214.8
2014-Sep-11 14:33N 40°39' E 001°30'1414.1
2014-Sep-11 13:33N 40°31' E 001°15'1514.5
2014-Sep-11 12:33N 40°23' E 000°59'1514.7
2014-Sep-11 11:33N 40°15' E 000°43'1514.7
2014-Sep-11 10:33N 40°07' E 000°27'1414.4
2014-Sep-11 09:33N 39°59' E 000°11'7 5.8
2014-Sep-11 08:17N 39°58' E 000°02'0 0.0
2014-Sep-11 07:29N 39°58' E 000°02'0 0.0
2014-Sep-10 21:30N 39°58' E 000°02'6 5.2
2014-Sep-10 20:27N 39°57' E 000°09'1 1.2
2014-Sep-10 19:32N 39°57' E 000°10'1 0.3
2014-Sep-10 17:24N 39°56' E 000°10'21 7.4
2014-Sep-10 14:31N 39°37' W 000°03'1111.1
2014-Sep-10 13:33N 39°29' W 000°12'6 4.6
2014-Sep-10 12:19N 39°27' W 000°19'0 0.0
2014-Sep-10 11:31N 39°27' W 000°19'0 0.0
2014-Sep-10 10:28N 39°27' W 000°19'0 0.0
2014-Sep-10 09:31N 39°27' W 000°19'0 0.0
2014-Sep-10 08:28N 39°27' W 000°19'0 0.0
2014-Sep-10 07:19N 39°27' W 000°19'0 0.0
2014-Sep-10 06:31N 39°27' W 000°19'0 0.0
2014-Sep-10 05:31N 39°27' W 000°19'0 0.0
2014-Sep-10 04:28N 39°27' W 000°19'0 0.0
2014-Sep-10 03:31N 39°27' W 000°19'0 0.0
2014-Sep-10 02:31N 39°27' W 000°19'0 0.0
2014-Sep-10 01:31N 39°27' W 000°19'0 0.0
2014-Sep-10 00:31N 39°27' W 000°19'0 0.0
2014-Sep-09 23:31N 39°27' W 000°19'0 0.0
2014-Sep-09 22:31N 39°27' W 000°19'0 0.0
2014-Sep-09 21:31N 39°27' W 000°19'0 0.0
2014-Sep-09 20:31N 39°27' W 000°19'0 0.0
2014-Sep-09 19:32N 39°27' W 000°19'3 3.0
2014-Sep-09 18:33N 39°26' W 000°15'9 8.8
2014-Sep-09 17:34N 39°32' W 000°07'3414.6
2014-Sep-09 15:14N 39°54' E 000°26'913.6
2014-Sep-09 14:33N 40°02' E 000°32'1414.2
2014-Sep-09 13:33N 40°11' E 000°47'1514.7
2014-Sep-09 12:33N 40°19' E 001°03'1514.8
2014-Sep-09 11:33N 40°27' E 001°20'1515.5
2014-Sep-09 10:34N 40°36' E 001°36'1414.2
2014-Sep-09 09:33N 40°45' E 001°51'1515.0
2014-Sep-09 08:33N 40°53' E 002°07'1515.4
2014-Sep-09 07:33N 41°02' E 002°24'1514.8
2014-Sep-09 06:33N 41°11' E 002°40'1715.6
2014-Sep-09 05:27N 41°20' E 002°59'1515.5
2014-Sep-09 04:30N 41°32' E 003°11'8115.3
2014-Sep-08 23:12N 42°36' E 004°18'2515.0
2014-Sep-08 21:32N 42°55' E 004°40'1514.8
2014-Sep-08 20:32N 43°06' E 004°54'1212.6
2014-Sep-08 19:34N 43°17' E 004°59'9 8.7
2014-Sep-08 18:34N 43°24' E 004°52'1 0.7
2014-Sep-08 17:33N 43°24' E 004°51'0 0.0
2014-Sep-08 16:33N 43°24' E 004°51'0 0.0
2014-Sep-08 15:33N 43°24' E 004°51'0 0.0
2014-Sep-08 14:30N 43°24' E 004°51'0 0.0
2014-Sep-08 13:33N 43°24' E 004°51'0 0.0
2014-Sep-08 12:33N 43°24' E 004°51'0 0.0
2014-Sep-08 11:33N 43°24' E 004°51'0 0.0
2014-Sep-08 10:33N 43°24' E 004°51'0 0.0
2014-Sep-08 09:30N 43°24' E 004°51'0 0.0
2014-Sep-08 08:33N 43°24' E 004°51'0 0.0
2014-Sep-08 07:33N 43°24' E 004°51'0 0.0
2014-Sep-08 06:33N 43°24' E 004°51'0 0.0
2014-Sep-08 05:33N 43°24' E 004°51'0 0.0
2014-Sep-08 04:33N 43°24' E 004°51'0 0.0
2014-Sep-08 03:33N 43°24' E 004°51'0 0.0
2014-Sep-08 02:33N 43°24' E 004°51'0 0.0
2014-Sep-08 01:33N 43°24' E 004°51'0 0.0
2014-Sep-08 00:33N 43°24' E 004°51'0 0.0
2014-Sep-07 23:33N 43°24' E 004°51'0 0.0
2014-Sep-07 22:33N 43°24' E 004°51'0 0.0
2014-Sep-07 21:33N 43°24' E 004°51'0 0.0
2014-Sep-07 20:33N 43°24' E 004°51'0 0.0
2014-Sep-07 19:33N 43°24' E 004°51'0 0.0
2014-Sep-07 18:33N 43°24' E 004°51'0 0.0
2014-Sep-07 17:33N 43°24' E 004°51'0 0.0
2014-Sep-07 16:33N 43°24' E 004°51'0 0.0
2014-Sep-07 15:33N 43°24' E 004°51'0 0.0
2014-Sep-07 14:33N 43°24' E 004°51'0 0.0
2014-Sep-07 13:33N 43°24' E 004°51'1 0.9
2014-Sep-07 12:34N 43°24' E 004°52'3 3.3
2014-Sep-07 11:32N 43°24' E 004°57'0 0.0
2014-Sep-07 10:29N 43°24' E 004°57'0 0.0
2014-Sep-07 09:32N 43°24' E 004°57'0 0.0
2014-Sep-07 08:32N 43°24' E 004°57'0 0.0
2014-Sep-07 07:32N 43°24' E 004°57'0 0.0
2014-Sep-07 06:32N 43°24' E 004°57'0 0.0
2014-Sep-07 05:32N 43°24' E 004°57'0 0.1
2014-Sep-07 04:33N 43°24' E 004°57'5 4.9
2014-Sep-07 03:33N 43°19' E 004°59'1111.1
2014-Sep-07 02:33N 43°09' E 005°05'1111.2
2014-Sep-07 01:33N 42°59' E 005°12'1611.2
2014-Sep-07 00:07N 42°45' E 005°23'610.9
2014-Sep-06 23:32N 42°40' E 005°28'3110.4
2014-Sep-06 20:31N 42°13' E 005°49'1110.6
2014-Sep-06 19:30N 42°04' E 005°57'1210.9
2014-Sep-06 18:25N 41°53' E 006°06'  

Dump ship's entire track history